Time;durP1;ratioP1;P1;durP2;ratioP2;P2;SDS_P1;SDS_P2;PMS_P1;PMS_P2;Temp;Humidity;BMP_temperature;BMP_pressure;BME280_temperature;BME280_humidity;BME280_pressure;Samples;Min_cycle;Max_cycle;Signal;HPM_P1;HPM_P2
2022/11/02 00:01:25;;;;;;;;;;;;;;;17.55;45.54;99356.69;4954638;29;19919;-81
2022/11/02 00:03:51;;;;;;;;;;;;;;;17.52;45.85;99349.94;4938681;29;19926;-81
2022/11/02 00:06:16;;;;;;;;;;;;;;;17.52;45.84;99354.34;4954986;29;19989;-80
2022/11/02 00:08:41;;;;;;;;;;;;;;;17.53;45.84;99356.03;4938521;29;20306;-81
2022/11/02 00:11:07;;;;;;;;;;;;;;;17.49;45.76;99355.50;4954519;29;19919;-80
2022/11/02 00:13:32;;;;;;;;;;;;;;;17.48;45.74;99356.47;4954569;29;19926;-81
2022/11/02 00:16:04;;;;;;;;;;;;;;;17.45;45.89;99354.13;4954203;29;19919;-82
2022/11/02 00:18:30;;;;;;;;;;;;;;;17.44;45.80;99352.47;4937639;29;19919;-81
2022/11/02 00:20:55;;;;;;;;;;;;;;;17.41;45.91;99350.13;4954354;29;20386;-81
2022/11/02 00:23:21;;;;;;;;;;;;;;;17.41;45.75;99358.03;4954260;28;19918;-81
2022/11/02 00:25:46;;;;;;;;;;;;;;;17.42;45.98;99353.59;4973198;28;19929;-81
2022/11/02 00:28:12;;;;;;;;;;;;;;;17.40;46.00;99356.38;4972878;28;19985;-82
2022/11/02 00:30:37;;;;;;;;;;;;;;;17.38;46.16;99350.41;4974792;28;19918;-82
2022/11/02 00:33:02;;;;;;;;;;;;;;;17.39;46.09;99345.97;4973427;28;19973;-81
2022/11/02 00:35:28;;;;;;;;;;;;;;;17.39;46.05;99341.50;4972895;28;19924;-81
2022/11/02 00:37:53;;;;;;;;;;;;;;;17.36;46.12;99339.16;4973054;28;19930;-81
2022/11/02 00:40:18;;;;;;;;;;;;;;;17.34;46.02;99338.47;4973125;28;19962;-81
2022/11/02 00:42:44;;;;;;;;;;;;;;;17.33;46.11;99336.81;4973248;28;19922;-82
2022/11/02 00:45:09;;;;;;;;;;;;;;;17.31;46.19;99330.84;4954920;28;20467;-81
2022/11/02 00:47:34;;;;;;;;;;;;;;;17.31;46.30;99333.50;4953381;29;20400;-81
2022/11/02 00:50:00;;;;;;;;;;;;;;;17.27;46.31;99332.97;4938018;29;19977;-82
2022/11/02 00:52:25;;;;;;;;;;;;;;;17.29;46.28;99327.53;4953752;29;20405;-83
2022/11/02 00:54:50;;;;;;;;;;;;;;;17.27;46.39;99330.31;4938017;29;20378;-83
2022/11/02 00:57:16;;;;;;;;;;;;;;;17.23;46.38;99334.22;4953545;29;19983;-83
2022/11/02 00:59:41;;;;;;;;;;;;;;;17.18;46.43;99328.53;4953830;29;20009;-82
2022/11/02 01:02:06;;;;;;;;;;;;;;;17.16;46.60;99326.06;4954184;29;20415;-83
2022/11/02 01:04:32;;;;;;;;;;;;;;;17.15;46.66;99323.56;4953638;29;19919;-82
2022/11/02 01:06:57;;;;;;;;;;;;;;;17.12;46.73;99323.84;4954646;28;19926;-83
2022/11/02 01:09:23;;;;;;;;;;;;;;;17.14;46.80;99322.75;4953651;29;20429;-82
2022/11/02 01:11:48;;;;;;;;;;;;;;;17.14;46.63;99321.88;4953520;29;20009;-82
2022/11/02 01:14:14;;;;;;;;;;;;;;;17.10;46.82;99320.53;4953460;29;20009;-83
2022/11/02 01:16:40;;;;;;;;;;;;;;;17.08;46.87;99315.41;4953903;29;19918;-82
2022/11/02 01:19:05;;;;;;;;;;;;;;;17.05;47.06;99307.78;4953803;29;19918;-82
2022/11/02 01:21:30;;;;;;;;;;;;;;;17.04;47.22;99316.66;4953469;29;19925;-82
2022/11/02 01:23:56;;;;;;;;;;;;;;;17.04;47.28;99310.56;4953771;29;19918;-83
2022/11/02 01:26:21;;;;;;;;;;;;;;;17.04;47.43;99298.19;4953327;29;19919;-83
2022/11/02 01:28:46;;;;;;;;;;;;;;;17.03;47.45;99303.59;4953406;29;20017;-82
2022/11/02 01:31:12;;;;;;;;;;;;;;;17.01;47.61;99301.13;4953411;29;19918;-82
2022/11/02 01:33:37;;;;;;;;;;;;;;;17.00;47.63;99296.84;4953538;29;19954;-82
2022/11/02 01:36:03;;;;;;;;;;;;;;;17.00;47.84;99295.03;4952976;29;20008;-82
2022/11/02 01:38:29;;;;;;;;;;;;;;;17.02;47.93;99294.06;4953491;29;20444;-83
2022/11/02 01:40:54;;;;;;;;;;;;;;;17.00;47.99;99295.03;4953398;29;20412;-81
2022/11/02 01:43:20;;;;;;;;;;;;;;;16.96;48.34;99287.53;4954625;29;19961;-83
2022/11/02 01:45:45;;;;;;;;;;;;;;;16.94;48.05;99290.31;4953691;29;19949;-82
2022/11/02 01:48:11;;;;;;;;;;;;;;;16.97;48.10;99295.31;4953429;29;20302;-83
2022/11/02 01:50:36;;;;;;;;;;;;;;;16.94;48.26;99292.13;4953200;29;20353;-82
2022/11/02 01:53:01;;;;;;;;;;;;;;;16.92;48.33;99289.66;4953420;29;20425;-82
2022/11/02 01:55:28;;;;;;;;;;;;;;;16.92;48.52;99288.78;4953292;29;19919;-82
2022/11/02 01:57:57;;;;;;;;;;;;;;;16.91;48.52;99289.78;4956479;28;19929;-83
2022/11/02 02:00:22;;;;;;;;;;;;;;;16.87;48.51;99286.59;4956944;29;20001;-82
2022/11/02 02:02:55;;;;;;;;;;;;;;;16.84;48.53;99286.88;4956923;28;20021;-82
2022/11/02 02:05:21;;;;;;;;;;;;;;;16.80;48.78;99282.84;4956685;29;20401;-83
2022/11/02 02:07:46;;;;;;;;;;;;;;;16.80;48.89;99281.03;4956793;28;19918;-83
2022/11/02 02:10:12;;;;;;;;;;;;;;;16.79;48.78;99287.31;4957085;29;19930;-81
2022/11/02 02:12:37;;;;;;;;;;;;;;;16.78;49.05;99288.25;4973277;28;20382;-81
2022/11/02 02:15:02;;;;;;;;;;;;;;;16.77;48.92;99291.88;4956698;29;20449;-82
2022/11/02 02:17:34;;;;;;;;;;;;;;;16.76;48.99;99284.94;4956773;29;19918;-81
2022/11/02 02:20:18;;;;;;;;;;;;;;;16.74;48.98;99291.31;4958038;29;19918;-81
2022/11/02 02:22:56;;;;;;;;;;;;;;;16.73;49.14;99284.38;4957753;28;19940;-83
2022/11/02 02:25:29;;;;;;;;;;;;;;;16.71;49.21;99279.25;4956558;28;19926;-83
2022/11/02 02:28:10;;;;;;;;;;;;;;;16.70;49.36;99289.94;4956502;29;20305;-83
2022/11/02 02:30:36;;;;;;;;;;;;;;;16.66;49.48;99281.50;4972529;28;19919;-82
2022/11/02 02:33:09;;;;;;;;;;;;;;;16.63;49.55;99280.00;4956407;28;19919;-82
2022/11/02 02:35:39;;;;;;;;;;;;;;;16.62;49.71;99278.31;4972842;28;19922;-82
2022/11/02 02:38:05;;;;;;;;;;;;;;;16.60;49.57;99280.28;4959518;28;19922;-82
2022/11/02 02:40:35;;;;;;;;;;;;;;;16.57;49.77;99285.84;4975529;28;19922;-82
2022/11/02 02:43:11;;;;;;;;;;;;;;;16.57;49.70;99287.63;4975795;28;19953;-82
2022/11/02 02:45:46;;;;;;;;;;;;;;;16.56;49.79;99285.97;4959188;28;19918;-82
2022/11/02 02:48:12;;;;;;;;;;;;;;;16.53;49.74;99289.72;4976592;28;20365;-82
2022/11/02 02:50:39;;;;;;;;;;;;;;;16.54;49.69;99285.25;4959392;28;20009;-82
2022/11/02 02:53:05;;;;;;;;;;;;;;;16.51;50.05;99288.19;4959972;28;19918;-82
2022/11/02 02:55:31;;;;;;;;;;;;;;;16.48;50.06;99291.94;4959361;28;20341;-82
2022/11/02 02:57:57;;;;;;;;;;;;;;;16.45;50.00;99285.16;4959356;28;19961;-82
2022/11/02 03:00:22;;;;;;;;;;;;;;;16.42;50.14;99280.16;4959138;28;19960;-82
2022/11/02 03:02:59;;;;;;;;;;;;;;;16.40;50.11;99281.28;4959270;28;19919;-82
2022/11/02 03:05:34;;;;;;;;;;;;;;;16.35;50.38;99286.97;4959288;28;19918;-82
2022/11/02 03:08:01;;;;;;;;;;;;;;;16.31;50.73;99277.69;4958319;28;19965;-82
2022/11/02 03:10:38;;;;;;;;;;;;;;;16.30;50.58;99283.91;4958811;28;19918;-81
2022/11/02 03:13:10;;;;;;;;;;;;;;;16.31;50.73;99284.75;4959069;28;19918;-81
2022/11/02 03:15:47;;;;;;;;;;;;;;;16.30;50.61;99283.91;4975165;28;19993;-81
2022/11/02 03:18:13;;;;;;;;;;;;;;;16.30;50.73;99281.28;4958952;28;19918;-81
2022/11/02 03:20:57;;;;;;;;;;;;;;;16.30;50.68;99283.09;4975139;28;19925;-83
2022/11/02 03:23:40;;;;;;;;;;;;;;;16.27;50.82;99279.78;4959523;28;20064;-82
2022/11/02 03:26:09;;;;;;;;;;;;;;;16.28;50.87;99288.50;4975024;28;19925;-81
2022/11/02 03:28:34;;;;;;;;;;;;;;;16.27;50.87;99278.91;4974748;28;20072;-81
2022/11/02 03:31:03;;;;;;;;;;;;;;;16.23;50.90;99281.00;4974252;28;19950;-82
2022/11/02 03:33:30;;;;;;;;;;;;;;;16.24;50.78;99281.84;4974771;28;20020;-82
2022/11/02 03:35:56;;;;;;;;;;;;;;;16.23;50.81;99275.75;4958373;28;19922;-81
2022/11/02 03:38:23;;;;;;;;;;;;;;;16.23;50.81;99280.19;4958562;28;20405;-83
2022/11/02 03:40:49;;;;;;;;;;;;;;;16.19;50.71;99274.38;4974538;28;20018;-83
2022/11/02 03:43:14;;;;;;;;;;;;;;;16.17;50.78;99273.66;4974533;28;19922;-82
2022/11/02 03:45:42;;;;;;;;;;;;;;;16.15;50.80;99274.78;4958261;28;19922;-82
2022/11/02 03:48:07;;;;;;;;;;;;;;;16.13;50.92;99274.94;4957094;28;19918;-82
2022/11/02 03:50:33;;;;;;;;;;;;;;;16.12;50.86;99269.81;4958164;28;19925;-82
2022/11/02 03:53:06;;;;;;;;;;;;;;;16.10;51.13;99269.94;4958243;28;19918;-82
2022/11/02 03:55:35;;;;;;;;;;;;;;;16.08;51.22;99267.44;4958404;28;20297;-82
2022/11/02 03:58:01;;;;;;;;;;;;;;;16.08;51.18;99269.22;4974181;28;20313;-82
2022/11/02 04:00:26;;;;;;;;;;;;;;;16.05;51.33;99266.88;4974295;28;20017;-82
2022/11/02 04:02:56;;;;;;;;;;;;;;;16.04;51.23;99262.59;4973853;28;20017;-82
2022/11/02 04:05:39;;;;;;;;;;;;;;;16.02;51.17;99270.63;4957984;28;20333;-82
2022/11/02 04:08:20;;;;;;;;;;;;;;;16.02;51.41;99264.50;4954792;28;20378;-82
2022/11/02 04:16:26;;;;;;;;;;;;;;;15.96;51.46;99267.72;4878017;29;19927;-83
2022/11/02 04:21:36;;;;;;;;;;;;;;;15.91;51.31;99268.16;4877195;29;19927;-81
2022/11/02 04:26:45;;;;;;;;;;;;;;;15.86;51.52;99263.28;4877065;29;20036;-82
2022/11/02 04:29:10;;;;;;;;;;;;;;;15.84;51.58;99256.50;4877693;29;20014;-82
2022/11/02 04:31:36;;;;;;;;;;;;;;;15.81;51.73;99259.41;4877811;29;19919;-83
2022/11/02 04:34:01;;;;;;;;;;;;;;;15.79;51.66;99256.91;4877644;29;19920;-72
2022/11/02 04:36:29;;;;;;;;;;;;;;;16.13;61.25;99260.91;4877087;29;20429;-71
2022/11/02 04:38:54;;;;;;;;;;;;;;;16.45;59.70;99250.88;4877217;29;20022;-72
2022/11/02 04:44:04;;;;;;;;;;;;;;;16.40;54.66;99239.94;4877814;29;19927;-73
2022/11/02 04:46:30;;;;;;;;;;;;;;;16.36;56.59;99243.84;4877384;29;19920;-72
2022/11/02 04:48:55;;;;;;;;;;;;;;;16.38;54.22;99233.16;4897229;29;19962;-73
2022/11/02 04:51:21;;;;;;;;;;;;;;;16.78;59.87;99242.63;4934805;29;20017;-71
2022/11/02 04:53:46;;;;;;;;;;;;;;;16.72;54.97;99236.09;4934704;29;19919;-72
2022/11/02 04:56:12;;;;;;;;;;;;;;;16.62;53.94;99241.41;4936140;29;19951;-72
2022/11/02 04:58:37;;;;;;;;;;;;;;;16.55;53.49;99247.41;4934527;29;19950;-71
2022/11/02 05:01:06;;;;;;;;;;;;;;;16.48;52.83;99239.25;4935746;29;19919;-71
2022/11/02 05:03:31;;;;;;;;;;;;;;;16.48;52.33;99244.50;4917839;29;19922;-72
2022/11/02 05:05:56;;;;;;;;;;;;;;;16.50;52.04;99241.75;4934408;29;19926;-72
2022/11/02 05:08:22;;;;;;;;;;;;;;;16.57;51.69;99241.03;4935807;29;19919;-72
2022/11/02 05:10:47;;;;;;;;;;;;;;;16.66;51.04;99238.50;4935549;29;19982;-71
2022/11/02 05:13:12;;;;;;;;;;;;;;;16.75;50.71;99238.47;4935645;29;19919;-71
2022/11/02 05:15:38;;;;;;;;;;;;;;;16.90;50.27;99245.94;4934269;29;19927;-72
2022/11/02 05:18:03;;;;;;;;;;;;;;;17.18;51.88;99246.78;4939480;29;20390;-76
2022/11/02 05:20:28;;;;;;;;;;;;;;;17.48;50.38;99242.16;4936990;29;19974;-74
2022/11/02 05:22:54;;;;;;;;;;;;;;;17.68;49.34;99245.50;4933871;29;19929;-70
2022/11/02 05:25:19;;;;;;;;;;;;;;;18.17;54.41;99256.53;4935383;29;20379;-70
2022/11/02 05:27:44;;;;;;;;;;;;;;;18.43;50.45;99259.16;4934260;29;19926;-70
2022/11/02 05:30:10;;;;;;;;;;;;;;;18.62;49.20;99259.97;4933902;29;19923;-69
2022/11/02 05:32:35;;;;;;;;;;;;;;;18.77;48.19;99262.84;4938412;29;19919;-71
2022/11/02 05:35:00;;;;;;;;;;;;;;;18.95;47.04;99268.09;4941697;29;19942;-70
2022/11/02 05:37:26;;;;;;;;;;;;;;;19.11;46.38;99262.06;4939612;28;20030;-69
2022/11/02 05:39:51;;;;;;;;;;;;;;;19.31;45.67;99266.09;4960912;29;20032;-70
2022/11/02 05:42:16;;;;;;;;;;;;;;;19.58;44.91;99274.78;4960622;29;19918;-72
2022/11/02 05:44:42;;;;;;;;;;;;;;;19.86;44.31;99275.38;4943339;29;19926;-71
2022/11/02 05:47:07;;;;;;;;;;;;;;;20.28;43.36;99278.03;4960172;29;19919;-71
2022/11/02 05:49:32;;;;;;;;;;;;;;;20.69;42.46;99272.72;4959717;29;20310;-72
2022/11/02 05:51:58;;;;;;;;;;;;;;;21.08;41.72;99274.56;4960650;28;19925;-73
2022/11/02 05:54:24;;;;;;;;;;;;;;;21.51;41.10;99275.06;4959721;29;20412;-70
2022/11/02 05:56:49;;;;;;;;;;;;;;;21.91;40.16;99275.00;4959723;29;19918;-71
2022/11/02 05:59:14;;;;;;;;;;;;;;;22.33;39.49;99278.97;4960793;28;20345;-72
2022/11/02 06:01:40;;;;;;;;;;;;;;;22.77;38.41;99273.75;4961263;28;20339;-72
2022/11/02 06:04:05;;;;;;;;;;;;;;;23.19;37.78;99271.44;4960763;28;19949;-71
2022/11/02 06:06:33;;;;;;;;;;;;;;;23.64;36.94;99280.19;4959441;29;19970;-71
2022/11/02 06:08:59;;;;;;;;;;;;;;;24.09;35.89;99279.22;4960371;28;19925;-72
2022/11/02 06:11:24;;;;;;;;;;;;;;;24.49;34.92;99276.84;4959286;28;19918;-72
2022/11/02 06:13:49;;;;;;;;;;;;;;;24.95;33.90;99280.88;4960531;29;19918;-71
2022/11/02 06:16:15;;;;;;;;;;;;;;;25.45;32.73;99276.19;4959069;28;20386;-72
2022/11/02 06:18:40;;;;;;;;;;;;;;;26.07;31.66;99281.50;4960597;28;19922;-72
2022/11/02 06:21:05;;;;;;;;;;;;;;;26.73;30.44;99274.50;4974998;28;19919;-72
2022/11/02 06:23:31;;;;;;;;;;;;;;;27.53;28.91;99271.53;4959082;28;19919;-72
2022/11/02 06:25:56;;;;;;;;;;;;;;;28.37;27.56;99272.22;4959447;29;19950;-71
2022/11/02 06:28:22;;;;;;;;;;;;;;;29.41;25.58;99272.38;4960496;28;19977;-73
2022/11/02 06:30:48;;;;;;;;;;;;;;;30.37;24.55;99274.25;4975166;28;20420;-71
2022/11/02 06:33:13;;;;;;;;;;;;;;;31.28;23.01;99273.00;4959641;28;20297;-72
2022/11/02 06:35:38;;;;;;;;;;;;;;;32.05;21.91;99271.69;4958772;28;19929;-72
2022/11/02 06:38:04;;;;;;;;;;;;;;;32.74;21.30;99279.53;4959588;28;19929;-71
2022/11/02 06:40:29;;;;;;;;;;;;;;;33.16;20.57;99275.47;4943297;29;19919;-72
2022/11/02 06:42:55;;;;;;;;;;;;;;;33.41;20.30;99274.97;4960189;28;19997;-72
2022/11/02 06:45:20;;;;;;;;;;;;;;;33.51;20.11;99275.09;4938863;29;19946;-71
2022/11/02 06:47:46;;;;;;;;;;;;;;;33.44;20.12;99270.94;4940528;29;20301;-74
2022/11/02 06:50:12;;;;;;;;;;;;;;;33.12;20.55;99277.06;4939670;29;19964;-72
2022/11/02 06:52:41;;;;;;;;;;;;;;;32.77;20.93;99276.34;4956117;29;19974;-71
2022/11/02 06:55:06;;;;;;;;;;;;;;;32.45;21.07;99274.25;4939918;29;20333;-72
2022/11/02 06:57:35;;;;;;;;;;;;;;;32.19;21.46;99273.03;4939880;29;19919;-72
2022/11/02 07:00:03;;;;;;;;;;;;;;;31.98;21.59;99269.16;4938857;29;19929;-72
2022/11/02 07:02:29;;;;;;;;;;;;;;;31.86;21.93;99271.13;4956080;29;19925;-72
2022/11/02 07:04:54;;;;;;;;;;;;;;;31.79;22.08;99276.69;4955912;29;19919;-71
2022/11/02 07:07:19;;;;;;;;;;;;;;;31.76;22.19;99269.06;4939488;29;19954;-72
2022/11/02 07:09:45;;;;;;;;;;;;;;;31.74;22.43;99265.81;4938819;29;19925;-71
2022/11/02 07:12:10;;;;;;;;;;;;;;;31.74;22.20;99261.22;4939673;29;20049;-72
2022/11/02 07:14:35;;;;;;;;;;;;;;;31.78;22.18;99266.94;4957079;29;19918;-71
2022/11/02 07:17:00;;;;;;;;;;;;;;;31.81;22.13;99255.66;4956529;29;20400;-71
2022/11/02 07:19:26;;;;;;;;;;;;;;;31.87;22.04;99256.56;4957249;29;20271;-71
2022/11/02 07:21:51;;;;;;;;;;;;;;;31.99;22.05;99254.63;4955627;29;20025;-72
2022/11/02 07:24:16;;;;;;;;;;;;;;;32.18;21.71;99254.38;4956647;29;19923;-72
2022/11/02 07:26:42;;;;;;;;;;;;;;;32.31;21.58;99245.13;4939369;29;19974;-72
2022/11/02 07:29:07;;;;;;;;;;;;;;;32.45;21.36;99247.25;4938603;29;19929;-72
2022/11/02 07:31:32;;;;;;;;;;;;;;;32.55;21.20;99246.56;4939425;29;20021;-72
2022/11/02 07:33:57;;;;;;;;;;;;;;;32.59;20.98;99241.47;4956731;29;20382;-71
2022/11/02 07:36:23;;;;;;;;;;;;;;;32.78;20.91;99237.44;4942051;29;19966;-72
2022/11/02 07:38:48;;;;;;;;;;;;;;;32.87;20.74;99237.81;4956294;28;19922;-72
2022/11/02 07:41:13;;;;;;;;;;;;;;;32.94;20.99;99240.31;4956489;28;20017;-72
2022/11/02 07:43:39;;;;;;;;;;;;;;;33.08;20.41;99240.75;4955088;29;19926;-73
2022/11/02 07:46:05;;;;;;;;;;;;;;;33.14;20.44;99231.63;4955214;29;19918;-72
2022/11/02 07:48:30;;;;;;;;;;;;;;;33.24;20.10;99229.09;4955135;29;19969;-73
2022/11/02 07:50:57;;;;;;;;;;;;;;;33.32;20.17;99219.66;4955149;29;19926;-74
2022/11/02 07:53:22;;;;;;;;;;;;;;;33.38;20.05;99224.06;4956250;28;19926;-72
2022/11/02 07:55:47;;;;;;;;;;;;;;;33.44;20.39;99216.81;4954945;28;19918;-72
2022/11/02 07:58:13;;;;;;;;;;;;;;;33.49;20.02;99211.44;4954977;29;19918;-73
2022/11/02 08:00:39;;;;;;;;;;;;;;;33.62;20.08;99205.63;4954980;29;19918;-72
2022/11/02 08:03:05;;;;;;;;;;;;;;;33.67;19.86;99213.78;4954683;29;20401;-71
2022/11/02 08:05:32;;;;;;;;;;;;;;;33.71;20.02;99211.41;4954678;29;20013;-71
2022/11/02 08:07:57;;;;;;;;;;;;;;;33.78;20.01;99211.19;4954742;29;19918;-72
2022/11/02 08:10:23;;;;;;;;;;;;;;;33.91;19.90;99201.84;4954777;29;19925;-72
2022/11/02 08:12:48;;;;;;;;;;;;;;;33.94;19.54;99206.69;4954638;29;20525;-72
2022/11/02 08:15:13;;;;;;;;;;;;;;;34.08;19.41;99203.31;4954717;29;19934;-72
2022/11/02 08:17:39;;;;;;;;;;;;;;;34.18;18.93;99197.13;4955719;28;19941;-71
2022/11/02 08:20:05;;;;;;;;;;;;;;;34.24;19.33;99204.25;4954470;29;19919;-71
2022/11/02 08:22:30;;;;;;;;;;;;;;;34.36;18.97;99198.63;4954427;29;20389;-71
2022/11/02 08:24:55;;;;;;;;;;;;;;;34.43;19.22;99193.78;4955487;29;19925;-72
2022/11/02 08:27:20;;;;;;;;;;;;;;;34.53;18.87;99194.91;4954396;29;19973;-71
2022/11/02 08:29:46;;;;;;;;;;;;;;;34.65;18.95;99192.81;4954558;29;20020;-72
2022/11/02 08:32:11;;;;;;;;;;;;;;;34.71;18.78;99199.88;4954733;29;19918;-72
2022/11/02 08:34:36;;;;;;;;;;;;;;;34.81;18.57;99191.00;4954502;29;20013;-72
2022/11/02 08:37:02;;;;;;;;;;;;;;;34.87;18.48;99194.53;4953910;29;19965;-72
2022/11/02 08:39:28;;;;;;;;;;;;;;;34.93;18.42;99193.47;4955695;29;19918;-71
2022/11/02 08:41:53;;;;;;;;;;;;;;;35.00;18.29;99188.63;4955293;28;19957;-72
2022/11/02 08:44:18;;;;;;;;;;;;;;;35.06;18.08;99184.84;4955111;29;19946;-71
2022/11/02 08:46:44;;;;;;;;;;;;;;;35.14;17.98;99184.31;4955464;29;20012;-72
2022/11/02 08:49:09;;;;;;;;;;;;;;;35.25;18.08;99178.91;4953550;29;19925;-72
2022/11/02 08:51:34;;;;;;;;;;;;;;;35.44;17.87;99187.34;4954219;29;19918;-72
2022/11/02 08:54:00;;;;;;;;;;;;;;;35.60;17.74;99175.44;4954187;29;19918;-73
2022/11/02 08:56:25;;;;;;;;;;;;;;;36.03;17.29;99180.59;4953822;29;19918;-72
2022/11/02 08:58:50;;;;;;;;;;;;;;;36.78;16.22;99181.75;4954935;29;20294;-73
2022/11/02 09:01:15;;;;;;;;;;;;;;;37.85;15.83;99168.53;4953398;29;20020;-72
2022/11/02 09:03:41;;;;;;;;;;;;;;;39.00;14.50;99162.28;4954775;29;20057;-71
2022/11/02 09:06:06;;;;;;;;;;;;;;;40.11;13.63;99170.91;4953874;28;19918;-72
2022/11/02 09:08:32;;;;;;;;;;;;;;;40.73;12.74;99173.22;4968948;28;20270;-72
2022/11/02 09:10:58;;;;;;;;;;;;;;;40.74;12.90;99171.28;4955261;28;20005;-75
2022/11/02 09:13:24;;;;;;;;;;;;;;;40.21;13.34;99158.97;4954051;29;19919;-72
2022/11/02 09:15:53;;;;;;;;;;;;;;;39.43;13.91;99157.53;4953568;29;19919;-73
2022/11/02 09:18:18;;;;;;;;;;;;;;;38.75;14.88;99145.19;4954769;28;19918;-72
2022/11/02 09:20:45;;;;;;;;;;;;;;;38.23;15.14;99144.97;4954829;29;19925;-72
2022/11/02 09:23:10;;;;;;;;;;;;;;;37.90;15.55;99141.22;4953834;29;19919;-75
2022/11/02 09:25:35;;;;;;;;;;;;;;;37.79;15.45;99138.59;4953509;29;19925;-74
2022/11/02 09:28:01;;;;;;;;;;;;;;;37.71;15.51;99135.69;4953385;29;19922;-74
2022/11/02 09:30:27;;;;;;;;;;;;;;;37.66;16.02;99133.81;4953426;29;20006;-72
2022/11/02 09:32:55;;;;;;;;;;;;;;;37.62;15.83;99130.84;4954878;28;19918;-73
2022/11/02 09:35:21;;;;;;;;;;;;;;;37.62;15.56;99124.56;4955061;28;19926;-74
2022/11/02 09:37:46;;;;;;;;;;;;;;;37.57;15.77;99119.97;4954892;28;20375;-73
2022/11/02 09:40:11;;;;;;;;;;;;;;;37.55;16.09;99115.94;4953801;29;19976;-73
2022/11/02 09:42:37;;;;;;;;;;;;;;;37.54;16.13;99117.03;4953248;29;20298;-71
2022/11/02 09:45:05;;;;;;;;;;;;;;;37.55;16.27;99114.03;4953349;29;19918;-72
2022/11/02 09:47:31;;;;;;;;;;;;;;;37.54;16.21;99109.66;4954829;29;20062;-72
2022/11/02 09:49:57;;;;;;;;;;;;;;;37.40;15.80;99114.97;4954485;29;20025;-72
2022/11/02 09:52:29;;;;;;;;;;;;;;;37.28;16.21;99099.00;4953333;29;19973;-72
2022/11/02 09:54:54;;;;;;;;;;;;;;;37.22;16.56;99104.78;4953295;29;20374;-72
2022/11/02 09:57:20;;;;;;;;;;;;;;;37.21;16.43;99100.38;4953175;29;19919;-74
2022/11/02 09:59:45;;;;;;;;;;;;;;;37.12;16.20;99094.75;4953599;29;19925;-73
2022/11/02 10:02:29;;;;;;;;;;;;;;;37.06;16.72;99096.69;4954701;29;19918;-75
2022/11/02 10:05:21;;;;;;;;;;;;;;;36.97;16.54;99092.16;4954399;29;19930;-72
2022/11/02 10:07:52;;;;;;;;;;;;;;;36.85;17.12;99089.78;4924460;29;19919;-73
2022/11/02 10:10:33;;;;;;;;;;;;;;;36.75;17.19;99087.94;4953398;29;19919;-71
2022/11/02 10:13:01;;;;;;;;;;;;;;;36.49;17.12;99085.34;4954189;29;19977;-72
2022/11/02 10:15:28;;;;;;;;;;;;;;;36.30;17.65;99081.63;4953030;29;20513;-72
2022/11/02 10:17:54;;;;;;;;;;;;;;;36.13;17.56;99080.03;4954121;28;19926;-72
2022/11/02 10:20:27;;;;;;;;;;;;;;;35.91;17.74;99076.84;4939373;29;19925;-73
2022/11/02 10:22:53;;;;;;;;;;;;;;;35.76;18.06;99078.50;4956903;29;19941;-72
2022/11/02 10:25:19;;;;;;;;;;;;;;;35.60;18.31;99076.91;4956540;29;20522;-71
2022/11/02 10:27:44;;;;;;;;;;;;;;;35.47;18.57;99061.97;4956544;29;19965;-72
2022/11/02 10:30:17;;;;;;;;;;;;;;;35.29;18.83;99058.72;4940505;29;19919;-72
2022/11/02 10:32:44;;;;;;;;;;;;;;;35.13;18.85;99054.38;4956728;29;19919;-73
2022/11/02 10:35:28;;;;;;;;;;;;;;;35.00;18.94;99049.47;4956620;29;19922;-73
2022/11/02 10:37:57;;;;;;;;;;;;;;;34.88;19.06;99044.31;4956534;29;19931;-72
2022/11/02 10:40:41;;;;;;;;;;;;;;;34.76;19.21;99050.81;4957357;29;19923;-72
2022/11/02 10:43:23;;;;;;;;;;;;;;;34.64;19.54;99036.66;4957627;29;19941;-73
2022/11/02 10:46:02;;;;;;;;;;;;;;;34.52;19.21;99042.34;4956585;29;19929;-73
2022/11/02 10:48:27;;;;;;;;;;;;;;;34.42;19.18;99032.25;4956289;29;19923;-71
2022/11/02 10:50:52;;;;;;;;;;;;;;;34.27;19.70;99029.53;4972336;28;19941;-72
2022/11/02 10:53:18;;;;;;;;;;;;;;;34.19;19.39;99033.53;4957178;28;19922;-73
2022/11/02 10:55:43;;;;;;;;;;;;;;;34.05;19.73;99033.19;4940196;29;19918;-72
2022/11/02 10:58:09;;;;;;;;;;;;;;;33.96;19.89;99023.94;4971878;28;19977;-71
2022/11/02 11:00:34;;;;;;;;;;;;;;;33.83;19.82;99022.53;4956060;29;20388;-72
2022/11/02 11:03:10;;;;;;;;;;;;;;;33.69;19.68;99018.66;4956029;29;19919;-72
2022/11/02 11:05:37;;;;;;;;;;;;;;;33.53;19.95;99023.97;4957099;28;20453;-71
2022/11/02 11:08:02;;;;;;;;;;;;;;;33.37;20.13;99006.00;4957291;28;19923;-73
2022/11/02 11:10:27;;;;;;;;;;;;;;;33.26;20.25;99010.53;4955770;28;19918;-73
2022/11/02 11:12:53;;;;;;;;;;;;;;;33.14;20.67;99004.44;4956051;29;19926;-71
2022/11/02 11:15:22;;;;;;;;;;;;;;;32.99;20.96;98999.75;4956950;28;19925;-72
2022/11/02 11:17:48;;;;;;;;;;;;;;;32.89;20.58;98997.75;4939297;29;19973;-72
2022/11/02 11:20:29;;;;;;;;;;;;;;;32.78;21.03;98996.88;4955462;29;20382;-71
2022/11/02 11:23:15;;;;;;;;;;;;;;;32.61;20.92;98988.84;4955589;29;19922;-71
2022/11/02 11:25:40;;;;;;;;;;;;;;;32.43;21.24;98989.19;4956331;29;19919;-72
2022/11/02 11:28:19;;;;;;;;;;;;;;;32.31;21.50;98981.25;4956646;29;19925;-71
2022/11/02 11:30:44;;;;;;;;;;;;;;;32.15;21.48;98985.66;4954676;28;19960;-72
2022/11/02 11:33:13;;;;;;;;;;;;;;;32.07;21.52;98981.50;4955264;29;19918;-72
2022/11/02 11:35:39;;;;;;;;;;;;;;;31.96;21.29;98977.03;4956743;28;19961;-72
2022/11/02 11:38:05;;;;;;;;;;;;;;;31.83;21.66;98970.13;4957939;28;19965;-73
2022/11/02 11:40:43;;;;;;;;;;;;;;;31.71;21.96;98972.94;4974659;28;20394;-71
2022/11/02 11:43:09;;;;;;;;;;;;;;;31.54;22.23;98966.78;4974507;28;20428;-72
2022/11/02 11:45:34;;;;;;;;;;;;;;;31.40;22.22;98968.97;4974452;28;19973;-71
2022/11/02 11:48:02;;;;;;;;;;;;;;;31.29;21.95;98972.59;4974245;28;20293;-73
2022/11/02 11:50:28;;;;;;;;;;;;;;;31.12;22.29;98961.81;4975445;28;19923;-72
2022/11/02 11:53:07;;;;;;;;;;;;;;;30.94;22.47;98960.97;4975451;28;19918;-72
2022/11/02 11:55:32;;;;;;;;;;;;;;;30.80;22.90;98960.47;4957843;28;20282;-72
2022/11/02 11:58:16;;;;;;;;;;;;;;;30.69;22.19;98958.69;4973953;28;19925;-71
2022/11/02 12:00:41;;;;;;;;;;;;;;;30.58;22.77;98959.56;4958477;28;19918;-72
2022/11/02 12:03:09;;;;;;;;;;;;;;;30.43;22.61;98950.16;4974014;28;19941;-72
2022/11/02 12:05:38;;;;;;;;;;;;;;;30.31;22.65;98952.06;4974070;28;20404;-71
2022/11/02 12:08:15;;;;;;;;;;;;;;;30.21;22.94;98943.81;4975053;28;20274;-71
2022/11/02 12:10:40;;;;;;;;;;;;;;;30.09;23.44;98946.53;4975435;28;19964;-71
2022/11/02 12:13:13;;;;;;;;;;;;;;;29.98;23.16;98931.22;4975149;28;19949;-72
2022/11/02 12:15:38;;;;;;;;;;;;;;;29.88;23.49;98948.00;4973806;28;20005;-72
2022/11/02 12:18:16;;;;;;;;;;;;;;;29.76;23.30;98938.06;4974884;28;19953;-72
2022/11/02 12:20:41;;;;;;;;;;;;;;;29.64;23.79;98917.63;4974904;28;19972;-73
2022/11/02 12:23:06;;;;;;;;;;;;;;;29.56;23.61;98925.00;4974990;28;19930;-71
2022/11/02 12:25:41;;;;;;;;;;;;;;;29.52;23.81;98936.47;4974955;28;20012;-71
2022/11/02 12:28:09;;;;;;;;;;;;;;;29.47;24.24;98933.66;4974802;28;19918;-71
2022/11/02 12:30:55;;;;;;;;;;;;;;;29.39;24.45;98924.88;4974723;28;20352;-72
2022/11/02 12:33:20;;;;;;;;;;;;;;;29.31;24.25;98919.06;4974253;28;19924;-72
2022/11/02 12:35:48;;;;;;;;;;;;;;;29.27;24.36;98924.09;4973231;28;19922;-72
2022/11/02 12:38:20;;;;;;;;;;;;;;;29.21;24.56;98927.72;4974837;28;19922;-71
2022/11/02 12:40:59;;;;;;;;;;;;;;;29.13;24.72;98923.50;4973225;28;19918;-73
2022/11/02 12:43:41;;;;;;;;;;;;;;;29.08;24.87;98914.47;4973126;28;19919;-72
2022/11/02 12:46:09;;;;;;;;;;;;;;;29.04;24.96;98919.50;4973614;28;19919;-71
2022/11/02 12:48:53;;;;;;;;;;;;;;;28.97;25.05;98916.09;4973048;28;20348;-71
2022/11/02 12:51:39;;;;;;;;;;;;;;;28.92;25.03;98916.00;4957141;28;20354;-71
2022/11/02 12:54:24;;;;;;;;;;;;;;;28.84;25.15;98912.63;4973183;28;20003;-71
2022/11/02 12:56:50;;;;;;;;;;;;;;;28.78;25.25;98913.53;4974450;28;19989;-72
2022/11/02 12:59:18;;;;;;;;;;;;;;;28.72;25.38;98911.78;4974034;28;19922;-72
2022/11/02 13:01:45;;;;;;;;;;;;;;;28.67;25.54;98911.63;4973206;28;19926;-71
2022/11/02 13:04:10;;;;;;;;;;;;;;;28.61;25.54;98908.00;4973224;28;19918;-71